createdAt,value
2023-03-06T00:00:06.355Z,55.00
2023-03-06T00:02:39.605Z,54.90
2023-03-06T00:05:09.261Z,55.00
2023-03-06T00:07:36.935Z,54.70
2023-03-06T00:10:05.051Z,54.30
2023-03-06T00:12:32.814Z,53.90
2023-03-06T00:15:00.491Z,53.80
2023-03-06T00:17:28.699Z,53.20
2023-03-06T00:19:56.439Z,53.60
2023-03-06T00:22:25.429Z,53.50
2023-03-06T00:24:54.276Z,52.90
2023-03-06T00:27:21.979Z,53.10
2023-03-06T00:29:50.404Z,52.90
2023-03-06T00:32:18.104Z,52.00
2023-03-06T00:34:45.817Z,52.20
2023-03-06T00:37:15.131Z,51.50
2023-03-06T00:39:44.152Z,51.00
2023-03-06T00:42:11.880Z,51.20
2023-03-06T00:44:39.651Z,50.50
2023-03-06T00:47:07.573Z,50.80
2023-03-06T00:49:35.379Z,49.80
2023-03-06T00:52:03.051Z,50.00
2023-03-06T00:54:30.769Z,49.70
2023-03-06T00:56:59.751Z,49.50
2023-03-06T00:59:28.461Z,49.30
2023-03-06T01:01:56.141Z,48.80
2023-03-06T01:04:23.857Z,48.50
2023-03-06T01:06:51.527Z,48.30
2023-03-06T01:09:19.191Z,48.40
2023-03-06T01:11:47.012Z,47.60
2023-03-06T01:14:16.097Z,47.30
2023-03-06T01:16:43.816Z,47.30
2023-03-06T01:19:11.552Z,46.90
2023-03-06T01:21:40.054Z,45.80
2023-03-06T01:24:08.246Z,45.50
2023-03-06T01:26:35.915Z,45.30
2023-03-06T01:29:03.646Z,45.10
2023-03-06T01:31:32.794Z,44.90
2023-03-06T01:34:00.646Z,44.60
2023-03-06T01:36:28.428Z,44.60
2023-03-06T01:38:56.142Z,44.30
2023-03-06T01:41:24.230Z,44.00
2023-03-06T01:43:51.926Z,43.90
2023-03-06T01:46:29.938Z,43.80
2023-03-06T01:49:00.022Z,43.20
2023-03-06T01:51:31.132Z,43.50
2023-03-06T01:53:59.055Z,43.20
2023-03-06T01:56:26.761Z,43.00
2023-03-06T01:58:54.482Z,42.80
2023-03-06T02:01:22.366Z,42.90
2023-03-06T02:03:50.122Z,42.60
2023-03-06T02:06:21.626Z,42.60
2023-03-06T02:08:49.707Z,42.40
2023-03-06T02:11:18.296Z,42.30
2023-03-06T02:13:46.190Z,42.00
2023-03-06T02:16:14.082Z,42.00
2023-03-06T02:18:41.882Z,41.90
2023-03-06T02:21:10.168Z,41.60
2023-03-06T02:23:43.929Z,41.50
2023-03-06T02:26:13.011Z,41.20
2023-03-06T02:28:40.813Z,41.10
2023-03-06T02:31:08.631Z,41.20
2023-03-06T02:33:36.363Z,41.00
2023-03-06T02:36:04.754Z,41.00
2023-03-06T02:38:35.117Z,40.80
2023-03-06T02:41:03.003Z,40.50
2023-03-06T02:43:34.406Z,40.70
2023-03-06T02:46:03.186Z,40.90
2023-03-06T02:48:30.866Z,40.40
2023-03-06T02:50:58.630Z,40.50
2023-03-06T02:53:27.131Z,40.70
2023-03-06T02:55:54.810Z,40.00
2023-03-06T02:58:22.492Z,40.00
2023-03-06T03:00:51.500Z,40.10
2023-03-06T03:03:20.765Z,39.90
2023-03-06T03:05:48.453Z,40.00
2023-03-06T03:08:23.326Z,39.90
2023-03-06T03:10:56.002Z,39.50
2023-03-06T03:13:24.451Z,39.90
2023-03-06T03:16:01.215Z,39.30
2023-03-06T03:18:28.986Z,39.00
2023-03-06T03:20:56.778Z,39.60
2023-03-06T03:23:24.527Z,39.30
2023-03-06T03:25:52.218Z,39.30
2023-03-06T03:28:20.614Z,39.00
2023-03-06T03:30:48.429Z,38.60
2023-03-06T03:33:17.749Z,38.70
2023-03-06T03:35:45.613Z,38.50
2023-03-06T03:38:13.353Z,38.60
2023-03-06T03:40:41.102Z,38.20
2023-03-06T03:43:09.535Z,38.00
2023-03-06T03:45:37.983Z,38.00
2023-03-06T03:48:05.957Z,37.90
2023-03-06T03:50:35.274Z,37.90
2023-03-06T03:53:03.036Z,37.90
2023-03-06T03:55:31.033Z,37.80
2023-03-06T03:57:58.884Z,37.60
2023-03-06T04:00:27.389Z,37.30
2023-03-06T04:03:07.337Z,37.40
2023-03-06T04:05:40.629Z,37.20
2023-03-06T04:08:09.945Z,37.10
2023-03-06T04:10:41.973Z,37.10
2023-03-06T04:13:10.967Z,37.30
2023-03-06T04:15:42.835Z,37.20
2023-03-06T04:18:11.646Z,37.20
2023-03-06T04:20:41.233Z,37.20
2023-03-06T04:23:08.994Z,36.90
2023-03-06T04:25:36.782Z,37.00
2023-03-06T04:28:07.081Z,37.10
2023-03-06T04:30:35.599Z,37.00
2023-03-06T04:33:03.926Z,37.20
2023-03-06T04:35:32.174Z,37.10
2023-03-06T04:38:05.801Z,37.00
2023-03-06T04:40:34.708Z,37.10
2023-03-06T04:43:02.810Z,37.20
2023-03-06T04:45:30.983Z,37.10
2023-03-06T04:47:59.044Z,37.10
2023-03-06T04:50:27.989Z,37.10
2023-03-06T04:52:55.698Z,37.40
2023-03-06T04:55:24.696Z,37.20
2023-03-06T04:57:52.520Z,37.10
2023-03-06T05:00:21.286Z,36.90
2023-03-06T05:02:49.518Z,37.10
2023-03-06T05:05:17.674Z,37.00
2023-03-06T05:07:45.570Z,37.10
2023-03-06T05:10:14.316Z,37.10
2023-03-06T05:12:43.321Z,37.20
2023-03-06T05:15:12.541Z,37.00
2023-03-06T05:17:40.406Z,37.30
2023-03-06T05:20:09.614Z,37.00
2023-03-06T05:22:37.439Z,37.10
2023-03-06T05:25:05.790Z,37.20
2023-03-06T05:27:33.772Z,37.20
2023-03-06T05:30:03.627Z,37.30
2023-03-06T05:32:32.415Z,37.30
2023-03-06T05:35:01.613Z,37.50
2023-03-06T05:37:29.273Z,37.50
2023-03-06T05:39:57.026Z,37.50
2023-03-06T05:42:26.016Z,37.70
2023-03-06T05:44:55.249Z,37.80
2023-03-06T05:47:24.317Z,37.60
2023-03-06T05:49:52.140Z,37.70
2023-03-06T05:52:19.839Z,37.70
2023-03-06T05:54:50.538Z,37.60
2023-03-06T05:57:19.408Z,37.70
2023-03-06T05:59:47.072Z,37.80
2023-03-06T06:02:14.768Z,37.80
2023-03-06T06:04:43.904Z,37.80
2023-03-06T06:07:13.519Z,37.80
2023-03-06T06:09:41.264Z,37.90
2023-03-06T06:12:09.456Z,37.90
2023-03-06T06:14:37.220Z,37.90
2023-03-06T06:17:04.939Z,37.80
2023-03-06T06:19:32.682Z,38.00
2023-03-06T06:22:02.553Z,38.10
2023-03-06T06:24:30.300Z,38.10
2023-03-06T06:26:58.781Z,38.10
2023-03-06T06:29:26.587Z,38.20
2023-03-06T06:31:54.361Z,38.10
2023-03-06T06:34:22.398Z,38.20
2023-03-06T06:36:52.914Z,38.30
2023-03-06T06:39:23.410Z,38.30
2023-03-06T06:42:05.653Z,38.30
2023-03-06T06:44:38.944Z,38.30
2023-03-06T06:47:22.424Z,38.50
2023-03-06T06:49:52.601Z,38.40
2023-03-06T06:52:20.307Z,38.50
2023-03-06T06:54:49.398Z,38.60
2023-03-06T06:57:17.256Z,38.40
2023-03-06T06:59:44.977Z,38.50
2023-03-06T07:02:12.790Z,38.60
2023-03-06T07:04:52.331Z,38.70
2023-03-06T07:07:28.215Z,38.70
2023-03-06T07:09:57.524Z,38.80
2023-03-06T07:12:25.217Z,38.80
2023-03-06T07:14:52.931Z,38.80
2023-03-06T07:17:20.662Z,38.90
2023-03-06T07:19:48.535Z,38.90
2023-03-06T07:22:16.238Z,39.00
2023-03-06T07:24:43.995Z,39.00
2023-03-06T07:27:13.188Z,39.10
2023-03-06T07:29:42.931Z,39.10
2023-03-06T07:32:10.719Z,39.20
2023-03-06T07:34:38.629Z,39.20
2023-03-06T07:37:06.330Z,39.20
2023-03-06T07:39:34.020Z,39.30
2023-03-06T07:42:01.742Z,39.30
2023-03-06T07:44:30.777Z,39.20
2023-03-06T07:46:58.530Z,39.40
2023-03-06T07:49:26.280Z,39.40
2023-03-06T07:51:53.941Z,39.40
2023-03-06T07:54:21.744Z,39.50
2023-03-06T07:56:51.195Z,39.40
2023-03-06T07:59:18.994Z,39.50
2023-03-06T08:01:48.010Z,39.50
2023-03-06T08:04:15.814Z,39.60
2023-03-06T08:06:43.542Z,39.70
2023-03-06T08:09:11.234Z,39.60
2023-03-06T08:11:38.935Z,39.60
2023-03-06T08:14:06.611Z,39.60
2023-03-06T08:16:34.336Z,39.70
2023-03-06T08:19:03.402Z,39.70
2023-03-06T08:21:31.136Z,39.70
2023-03-06T08:23:58.978Z,39.80
2023-03-06T08:26:27.452Z,39.80
2023-03-06T08:28:55.331Z,39.90
2023-03-06T08:31:26.452Z,39.80
2023-03-06T08:33:54.279Z,39.90
2023-03-06T08:36:23.809Z,39.90
2023-03-06T08:38:51.547Z,40.00
2023-03-06T08:41:20.349Z,40.00
2023-03-06T08:43:48.131Z,40.00
2023-03-06T08:46:15.800Z,40.10
2023-03-06T08:48:43.514Z,40.10
2023-03-06T08:51:11.284Z,40.10
2023-03-06T08:53:43.547Z,40.10
2023-03-06T08:56:17.225Z,40.10
2023-03-06T08:58:44.898Z,40.20
2023-03-06T09:01:16.166Z,40.20
2023-03-06T09:03:43.915Z,40.30
2023-03-06T09:06:11.717Z,40.30
2023-03-06T09:08:43.039Z,40.30
2023-03-06T09:11:10.896Z,40.30
2023-03-06T09:13:38.599Z,40.40
2023-03-06T09:16:07.034Z,40.40
2023-03-06T09:18:34.726Z,40.40
2023-03-06T09:21:02.469Z,40.40
2023-03-06T09:23:30.184Z,40.50
2023-03-06T09:25:59.800Z,40.50
2023-03-06T09:28:27.493Z,40.40
2023-03-06T09:30:55.297Z,40.50
2023-03-06T09:33:23.276Z,40.60
2023-03-06T09:35:51.886Z,40.60
2023-03-06T09:38:19.798Z,40.60
2023-03-06T09:40:56.329Z,40.70
2023-03-06T09:43:28.006Z,40.70
2023-03-06T09:45:55.771Z,40.80
2023-03-06T09:48:24.061Z,40.80
2023-03-06T09:50:52.369Z,40.70
2023-03-06T09:53:29.840Z,40.80
2023-03-06T09:55:59.947Z,40.70
2023-03-06T09:58:29.648Z,40.70
2023-03-06T10:01:00.713Z,40.70
2023-03-06T10:03:30.072Z,40.80
2023-03-06T10:06:02.217Z,40.70
2023-03-06T10:08:31.916Z,40.70
2023-03-06T10:11:01.796Z,40.80
2023-03-06T10:13:34.035Z,40.70
2023-03-06T10:16:04.874Z,40.70
2023-03-06T10:18:32.973Z,40.70
2023-03-06T10:21:18.506Z,40.60
2023-03-06T10:23:51.403Z,40.70
2023-03-06T10:26:20.828Z,40.70
2023-03-06T10:28:53.738Z,40.70
2023-03-06T10:31:23.572Z,40.50
2023-03-06T10:33:55.259Z,40.70
2023-03-06T10:36:25.324Z,40.80
2023-03-06T10:38:53.039Z,40.80
2023-03-06T10:41:24.539Z,40.80
2023-03-06T10:44:23.367Z,40.90
2023-03-06T10:46:52.425Z,40.80
2023-03-06T10:49:35.568Z,40.90
2023-03-06T10:52:05.333Z,40.70
2023-03-06T10:54:33.952Z,40.80
2023-03-06T10:57:20.431Z,40.80
2023-03-06T10:59:56.143Z,40.70
2023-03-06T11:02:31.268Z,40.70
2023-03-06T11:04:59.923Z,40.60
2023-03-06T11:07:28.387Z,40.70
2023-03-06T11:10:06.037Z,40.70
2023-03-06T11:12:34.118Z,40.80
2023-03-06T11:15:14.039Z,40.80
2023-03-06T11:17:50.169Z,40.80
2023-03-06T11:20:18.928Z,40.90
2023-03-06T11:22:49.139Z,41.00
2023-03-06T11:25:17.860Z,41.00
2023-03-06T11:27:46.516Z,41.10
2023-03-06T11:30:18.750Z,41.10
2023-03-06T11:32:50.247Z,41.30
2023-03-06T11:35:21.229Z,41.30
2023-03-06T11:37:53.772Z,41.40
2023-03-06T11:40:24.638Z,41.30
2023-03-06T11:42:56.700Z,41.40
2023-03-06T11:45:28.482Z,41.40
2023-03-06T11:48:01.635Z,41.30
2023-03-06T11:50:32.040Z,41.30
2023-03-06T11:53:01.363Z,41.40
2023-03-06T11:55:40.043Z,41.30
2023-03-06T11:58:18.983Z,41.20
2023-03-06T12:00:51.070Z,41.20
2023-03-06T12:03:42.730Z,41.20
2023-03-06T12:06:11.731Z,41.10
2023-03-06T12:08:45.984Z,41.30
2023-03-06T12:14:29.568Z,41.40
2023-03-06T12:17:10.323Z,41.40
2023-03-06T12:19:44.330Z,41.50
2023-03-06T12:22:24.646Z,41.50
2023-03-06T12:24:58.619Z,41.40
2023-03-06T12:27:28.958Z,41.50
2023-03-06T12:30:17.930Z,41.40
2023-03-06T12:32:49.675Z,41.20
2023-03-06T12:35:27.443Z,41.20
2023-03-06T12:38:00.222Z,41.30
2023-03-06T12:40:55.229Z,41.40
2023-03-06T12:43:52.766Z,41.00
2023-03-06T12:46:21.682Z,40.90
2023-03-06T12:48:57.673Z,41.00
2023-03-06T12:51:25.356Z,40.80
2023-03-06T12:53:53.056Z,40.80
2023-03-06T12:56:21.774Z,40.70
2023-03-06T12:58:50.996Z,40.60
2023-03-06T13:01:48.734Z,40.50
2023-03-06T13:04:28.948Z,40.20
2023-03-06T13:07:03.292Z,40.20
2023-03-06T13:09:32.383Z,40.30
2023-03-06T13:12:19.784Z,39.80
2023-03-06T13:14:58.248Z,39.50
2023-03-06T13:17:28.566Z,39.20
2023-03-06T13:20:26.922Z,39.30
2023-03-06T13:22:54.623Z,39.30
2023-03-06T13:25:47.982Z,39.40
2023-03-06T13:28:24.523Z,39.30
2023-03-06T13:30:53.257Z,39.60
2023-03-06T13:33:52.910Z,39.80
2023-03-06T13:36:29.385Z,40.10
2023-03-06T13:39:01.663Z,40.40
2023-03-06T13:41:43.416Z,40.60
2023-03-06T13:44:48.728Z,40.90
2023-03-06T13:48:06.516Z,41.00
2023-03-06T13:50:35.811Z,41.00
2023-03-06T13:53:20.938Z,41.30
2023-03-06T13:55:53.291Z,41.40
2023-03-06T13:58:31.152Z,41.60
2023-03-06T14:01:10.377Z,41.70
2023-03-06T14:04:03.114Z,41.80
2023-03-06T14:06:42.643Z,42.00
2023-03-06T14:09:16.694Z,42.00
2023-03-06T14:11:47.288Z,42.00
2023-03-06T14:14:14.983Z,41.70
2023-03-06T14:16:50.030Z,41.80
2023-03-06T14:19:18.407Z,41.70
2023-03-06T14:21:48.246Z,41.70
2023-03-06T14:24:18.133Z,41.60
2023-03-06T14:26:47.434Z,41.60
2023-03-06T14:29:21.989Z,41.70
2023-03-06T14:31:50.743Z,41.70
2023-03-06T14:34:20.995Z,41.70
2023-03-06T14:36:49.766Z,41.80
2023-03-06T14:39:22.006Z,41.80
2023-03-06T14:41:49.679Z,41.70
2023-03-06T14:44:19.245Z,41.90
2023-03-06T14:46:47.830Z,42.10
2023-03-06T14:49:16.005Z,42.10
2023-03-06T14:51:44.385Z,42.20
2023-03-06T14:54:15.509Z,42.30
2023-03-06T14:56:45.903Z,42.30
2023-03-06T14:59:16.291Z,42.40
2023-03-06T15:01:45.969Z,42.60
2023-03-06T15:04:18.738Z,42.50
2023-03-06T15:06:46.623Z,42.60
2023-03-06T15:09:15.991Z,42.50
2023-03-06T15:11:56.064Z,42.60
2023-03-06T15:14:30.445Z,42.60
2023-03-06T15:17:13.069Z,42.80
2023-03-06T15:19:41.300Z,42.80
2023-03-06T15:22:21.874Z,42.80
2023-03-06T15:24:49.562Z,42.90
2023-03-06T15:27:19.473Z,43.20
2023-03-06T15:29:47.143Z,43.00
2023-03-06T15:32:16.589Z,43.00
2023-03-06T15:34:44.365Z,43.10
2023-03-06T15:37:26.370Z,43.20
2023-03-06T15:40:09.074Z,43.30
2023-03-06T15:42:38.104Z,43.10
2023-03-06T15:45:16.024Z,43.20
2023-03-06T15:47:44.678Z,43.10
2023-03-06T15:50:16.644Z,43.20
2023-03-06T15:52:44.443Z,43.20
2023-03-06T15:55:12.862Z,43.30
2023-03-06T15:57:42.680Z,43.30
2023-03-06T16:00:27.780Z,43.20
2023-03-06T16:02:55.985Z,43.20
2023-03-06T16:05:24.290Z,43.30
2023-03-06T16:07:52.034Z,43.30
2023-03-06T16:10:20.738Z,43.30
2023-03-06T16:12:50.584Z,43.40
2023-03-06T16:15:22.289Z,43.30
2023-03-06T16:17:50.669Z,43.40
2023-03-06T16:20:19.586Z,43.40
2023-03-06T16:22:47.342Z,44.20
2023-03-06T16:25:16.124Z,43.60
2023-03-06T16:27:55.242Z,43.70
2023-03-06T16:30:24.469Z,43.80
2023-03-06T16:32:52.242Z,43.80
2023-03-06T16:35:20.021Z,43.90
2023-03-06T16:37:47.884Z,44.00
2023-03-06T16:40:22.034Z,44.00
2023-03-06T16:42:50.002Z,44.00
2023-03-06T16:45:18.281Z,44.00
2023-03-06T16:47:47.863Z,44.00
2023-03-06T16:50:24.393Z,44.10
2023-03-06T16:52:52.984Z,44.10
2023-03-06T16:55:20.882Z,44.20
2023-03-06T16:57:48.639Z,44.10
2023-03-06T17:00:17.017Z,44.20
2023-03-06T17:02:44.681Z,44.20
2023-03-06T17:05:13.800Z,44.10
2023-03-06T17:07:41.645Z,44.20
2023-03-06T17:10:13.239Z,44.30
2023-03-06T17:12:41.046Z,44.40
2023-03-06T17:15:09.611Z,44.40
2023-03-06T17:17:37.288Z,44.40
2023-03-06T17:20:05.691Z,44.40
2023-03-06T17:22:35.250Z,44.30
2023-03-06T17:25:03.159Z,44.40
2023-03-06T17:27:30.936Z,44.50
2023-03-06T17:29:58.943Z,44.30
2023-03-06T17:32:26.783Z,44.50
2023-03-06T17:34:54.604Z,44.40
2023-03-06T17:37:22.402Z,44.50
2023-03-06T17:39:51.565Z,44.50
2023-03-06T17:42:19.234Z,44.60
2023-03-06T17:44:47.849Z,44.60
2023-03-06T17:47:15.572Z,44.60
2023-03-06T17:49:43.463Z,44.70
2023-03-06T17:52:11.289Z,44.70
2023-03-06T17:54:39.009Z,44.60
2023-03-06T17:57:08.098Z,44.70
2023-03-06T17:59:35.803Z,44.80
2023-03-06T18:02:03.748Z,44.80
2023-03-06T18:04:31.496Z,44.80
2023-03-06T18:06:59.179Z,44.90
2023-03-06T18:09:26.978Z,44.90
2023-03-06T18:11:54.655Z,44.90
2023-03-06T18:14:24.250Z,45.00
2023-03-06T18:16:51.974Z,45.10
2023-03-06T18:19:19.728Z,45.10
2023-03-06T18:21:47.849Z,45.20
2023-03-06T18:24:15.651Z,45.30
2023-03-06T18:26:43.404Z,45.30
2023-03-06T18:29:11.066Z,45.30
2023-03-06T18:31:40.680Z,45.40
2023-03-06T18:34:09.103Z,45.30
2023-03-06T18:36:37.047Z,45.40
2023-03-06T18:39:05.925Z,45.50
2023-03-06T18:41:33.601Z,45.50
2023-03-06T18:44:01.688Z,45.40
2023-03-06T18:46:31.153Z,45.40
2023-03-06T18:49:00.197Z,45.50
2023-03-06T18:51:28.035Z,45.50
2023-03-06T18:53:57.425Z,45.50
2023-03-06T18:56:25.281Z,45.60
2023-03-06T18:58:53.749Z,46.20
2023-03-06T19:01:22.234Z,45.60
2023-03-06T19:03:50.264Z,45.60
2023-03-06T19:06:20.186Z,45.60
2023-03-06T19:08:47.964Z,45.70
2023-03-06T19:11:16.667Z,45.70
2023-03-06T19:13:44.654Z,45.70
2023-03-06T19:16:17.347Z,45.70
2023-03-06T19:18:45.027Z,45.80
2023-03-06T19:21:14.202Z,45.80
2023-03-06T19:23:43.234Z,45.80
2023-03-06T19:26:10.957Z,45.90
2023-03-06T19:28:39.363Z,45.80
2023-03-06T19:31:11.474Z,45.90
2023-03-06T19:33:39.360Z,46.00
2023-03-06T19:36:08.046Z,45.90
2023-03-06T19:38:35.764Z,46.00
2023-03-06T19:41:04.983Z,46.00
2023-03-06T19:43:32.667Z,46.10
2023-03-06T19:46:00.885Z,46.10
2023-03-06T19:48:28.567Z,46.00
2023-03-06T19:50:56.244Z,46.10
2023-03-06T19:53:23.986Z,46.10
2023-03-06T19:55:51.691Z,46.20
2023-03-06T19:58:20.713Z,46.20
2023-03-06T20:00:48.782Z,46.20
2023-03-06T20:03:16.449Z,46.20
2023-03-06T20:05:47.366Z,46.20
2023-03-06T20:08:15.106Z,46.20
2023-03-06T20:10:42.766Z,46.20
2023-03-06T20:13:10.438Z,46.20
2023-03-06T20:15:39.497Z,46.20
2023-03-06T20:18:07.214Z,46.20
2023-03-06T20:20:37.479Z,46.20
2023-03-06T20:23:05.147Z,46.30
2023-03-06T20:25:32.886Z,46.30
2023-03-06T20:28:00.544Z,46.30
2023-03-06T20:30:37.469Z,46.30
2023-03-06T20:33:07.229Z,46.40
2023-03-06T20:35:34.899Z,46.50
2023-03-06T20:38:02.567Z,46.40
2023-03-06T20:40:30.349Z,46.40
2023-03-06T20:42:58.038Z,46.50
2023-03-06T20:45:25.703Z,46.50
2023-03-06T20:47:56.095Z,46.60
2023-03-06T20:50:25.514Z,46.60
2023-03-06T20:52:54.371Z,46.70
2023-03-06T20:55:22.026Z,46.60
2023-03-06T20:57:50.638Z,46.70
2023-03-06T21:00:19.602Z,46.70
2023-03-06T21:02:47.386Z,46.80
2023-03-06T21:05:15.275Z,46.80
2023-03-06T21:07:44.282Z,46.80
2023-03-06T21:10:14.404Z,46.90
2023-03-06T21:12:42.256Z,46.90
2023-03-06T21:15:10.567Z,46.90
2023-03-06T21:17:38.737Z,47.00
2023-03-06T21:20:07.293Z,47.00
2023-03-06T21:22:34.949Z,47.00
2023-03-06T21:25:04.147Z,47.00
2023-03-06T21:27:31.827Z,47.00
2023-03-06T21:29:59.567Z,47.10
2023-03-06T21:32:27.290Z,47.00
2023-03-06T21:34:54.945Z,47.20
2023-03-06T21:37:22.645Z,47.20
2023-03-06T21:39:50.301Z,47.10
2023-03-06T21:42:19.330Z,47.10
2023-03-06T21:44:47.182Z,47.20
2023-03-06T21:47:14.825Z,47.20
2023-03-06T21:49:42.492Z,47.20
2023-03-06T21:52:10.150Z,47.30
2023-03-06T21:54:37.828Z,47.20
2023-03-06T21:57:05.890Z,47.30
2023-03-06T21:59:34.892Z,47.30
2023-03-06T22:02:02.542Z,47.40
2023-03-06T22:04:30.281Z,47.30
2023-03-06T22:06:57.963Z,47.30
2023-03-06T22:09:25.642Z,47.40
2023-03-06T22:11:53.282Z,47.50
2023-03-06T22:14:20.941Z,47.50
2023-03-06T22:16:51.377Z,47.40
2023-03-06T22:19:19.142Z,47.50
2023-03-06T22:21:46.802Z,47.60
2023-03-06T22:24:14.448Z,47.50
2023-03-06T22:26:42.095Z,47.60
2023-03-06T22:29:09.767Z,47.50
2023-03-06T22:31:39.962Z,47.50
2023-03-06T22:34:09.989Z,47.60
2023-03-06T22:36:37.643Z,47.50
2023-03-06T22:39:05.438Z,47.60
2023-03-06T22:41:33.132Z,47.50
2023-03-06T22:44:01.536Z,47.50
2023-03-06T22:46:29.224Z,47.40
2023-03-06T22:48:57.017Z,47.40
2023-03-06T22:51:26.071Z,47.50
2023-03-06T22:53:53.850Z,47.50
2023-03-06T22:56:22.141Z,47.50
2023-03-06T22:58:49.880Z,47.60
2023-03-06T23:01:18.416Z,47.50
2023-03-06T23:03:47.060Z,47.60
2023-03-06T23:06:15.626Z,47.60
2023-03-06T23:08:45.042Z,47.50
2023-03-06T23:11:14.133Z,47.60
2023-03-06T23:14:00.941Z,47.60
2023-03-06T23:16:47.198Z,47.60
2023-03-06T23:19:33.465Z,47.60
2023-03-06T23:22:20.050Z,47.50
2023-03-06T23:25:08.649Z,47.60
2023-03-06T23:27:36.712Z,47.60
2023-03-06T23:30:04.929Z,48.30
2023-03-06T23:32:33.489Z,47.70
2023-03-06T23:35:01.182Z,47.70
2023-03-06T23:37:28.863Z,47.70
2023-03-06T23:39:56.689Z,47.70
2023-03-06T23:42:25.685Z,47.70
2023-03-06T23:44:53.357Z,47.60
2023-03-06T23:47:21.055Z,47.60
2023-03-06T23:49:48.723Z,47.50
2023-03-06T23:52:16.371Z,47.70
2023-03-06T23:54:44.052Z,47.70
2023-03-06T23:57:11.740Z,47.70
2023-03-06T23:59:40.834Z,47.80
